Burton-on-Trent, United Kingdom
Current Conditions -  °F | °C
As of 10:20 AM on Friday 19 Dec 2014 (Local Time) from EGNX Reporting Station
Clear Clear  
Wind Chill:   Ceiling: Unl
Heat Index:   Visibility: 6mi
Dew Point:   Wind: 25mph
Humidity: 76%   Direction: 250°WSW
Pressure: 29.85"   Gusts: NA
Location:  52.79°N, 1.66°W
Report Text: EGNX 190920Z 25022KT CAVOK 06/02 Q1011
Loading
Personal Weather Stations






























Interactive Weather Map New forecast layout! Learn more

10-Day Weather Forecast

Advertisements
Track Severe Weather on mobile